Time;durP1;ratioP1;P1;durP2;ratioP2;P2;SDS_P1;SDS_P2;PMS_P1;PMS_P2;Temp;Humidity;BMP_temperature;BMP_pressure;BME280_temperature;BME280_humidity;BME280_pressure;Samples;Min_cycle;Max_cycle;Signal;HPM_P1;HPM_P2
2021/08/10 00:00:06;;;;;;;7.25;4.07;;;26.20;90.60;;;;;;5116567;28;20511;-44
2021/08/10 00:02:32;;;;;;;8.48;4.85;;;26.20;90.70;;;;;;5064627;28;20075;-47
2021/08/10 00:04:58;;;;;;;6.70;4.65;;;26.20;90.60;;;;;;5116429;28;20084;-47
2021/08/10 00:07:24;;;;;;;6.15;4.72;;;26.20;90.60;;;;;;5030759;28;20452;-47
2021/08/10 00:09:49;;;;;;;5.63;4.97;;;26.20;90.50;;;;;;5117462;28;20031;-43
2021/08/10 00:12:15;;;;;;;6.15;4.50;;;26.20;90.60;;;;;;5098760;28;20032;-43
2021/08/10 00:14:41;;;;;;;7.03;4.47;;;26.20;90.50;;;;;;5117351;28;20023;-46
2021/08/10 00:17:07;;;;;;;8.75;4.82;;;26.10;90.90;;;;;;5116988;28;20530;-46
2021/08/10 00:19:33;;;;;;;6.72;3.97;;;26.10;90.90;;;;;;5116925;28;20118;-42
2021/08/10 00:21:59;;;;;;;6.30;4.78;;;26.10;90.90;;;;;;5031506;28;20375;-45
2021/08/10 00:24:25;;;;;;;8.55;4.60;;;26.10;90.80;;;;;;5117226;28;20051;-46
2021/08/10 00:26:51;;;;;;;7.43;4.35;;;26.10;90.80;;;;;;5117338;28;20047;-45
2021/08/10 00:29:17;;;;;;;6.13;4.53;;;26.10;90.80;;;;;;5117007;28;20475;-42
2021/08/10 00:31:43;;;;;;;7.60;4.50;;;26.20;90.80;;;;;;5064588;28;20035;-43
2021/08/10 00:34:09;;;;;;;9.88;5.72;;;26.20;90.80;;;;;;5117077;28;20024;-46
2021/08/10 00:36:37;;;;;;;8.25;6.25;;;25.90;91.20;;;;;;5116983;28;20023;-49
2021/08/10 00:39:05;;;;;;;5.95;5.35;;;25.90;91.20;;;;;;5116868;28;20493;-44
2021/08/10 00:41:31;;;;;;;7.53;6.80;;;26.00;91.20;;;;;;5116889;28;20023;-48
2021/08/10 00:43:58;;;;;;;9.20;6.50;;;26.00;91.30;;;;;;5116735;28;20055;-45
2021/08/10 00:46:23;;;;;;;7.93;6.30;;;25.80;91.60;;;;;;5116833;28;20015;-47
2021/08/10 00:48:49;;;;;;;7.93;6.45;;;25.80;91.60;;;;;;5071255;28;20043;-46
2021/08/10 00:51:15;;;;;;;7.60;6.00;;;25.80;91.60;;;;;;5116747;28;20382;-47
2021/08/10 00:53:42;;;;;;;6.35;5.15;;;25.90;91.40;;;;;;5116081;28;20020;-45
2021/08/10 00:56:09;;;;;;;6.63;4.82;;;25.90;91.40;;;;;;5116581;28;20031;-47
2021/08/10 00:58:36;;;;;;;6.60;4.68;;;25.90;91.40;;;;;;5064454;28;20063;-44
2021/08/10 01:01:01;;;;;;;7.32;4.57;;;25.90;91.30;;;;;;5116663;28;20062;-45
2021/08/10 01:03:27;;;;;;;6.65;4.70;;;25.90;91.40;;;;;;5064011;28;20067;-43
2021/08/10 01:05:53;;;;;;;10.68;5.40;;;25.90;91.40;;;;;;5116657;28;20024;-45
2021/08/10 01:08:39;;;;;;;6.82;4.97;;;25.90;91.40;;;;;;5116692;28;20043;-43
2021/08/10 01:11:19;;;;;;;7.07;4.55;;;25.90;91.40;;;;;;5116199;28;20050;-47
2021/08/10 01:13:53;;;;;;;6.15;4.82;;;25.90;91.40;;;;;;5116205;28;20020;-47
2021/08/10 01:16:37;;;;;;;4.95;4.45;;;25.90;91.50;;;;;;5116314;28;20046;-45
2021/08/10 01:19:21;;;;;;;7.00;4.68;;;25.90;91.60;;;;;;5080491;28;20036;-46
2021/08/10 01:21:51;;;;;;;6.30;4.78;;;25.90;91.70;;;;;;5116001;28;20031;-45
2021/08/10 01:24:21;;;;;;;7.45;4.88;;;25.80;91.70;;;;;;5116168;28;20085;-44
2021/08/10 01:26:53;;;;;;;5.75;4.20;;;25.80;91.80;;;;;;5116286;28;20150;-45
2021/08/10 01:29:39;;;;;;;8.00;4.72;;;25.80;91.80;;;;;;5116016;28;20019;-45
2021/08/10 01:32:05;;;;;;;6.13;4.75;;;25.70;91.90;;;;;;5115820;28;20506;-44
2021/08/10 01:34:45;;;;;;;6.65;4.90;;;25.70;92.00;;;;;;5116173;28;20413;-48
2021/08/10 01:37:20;;;;;;;6.63;5.05;;;25.70;92.10;;;;;;5115732;28;20092;-44
2021/08/10 01:39:50;;;;;;;6.53;5.20;;;25.50;92.30;;;;;;5115733;28;20023;-46
2021/08/10 01:42:18;;;;;;;8.98;5.20;;;25.40;92.60;;;;;;5115669;28;20059;-45
2021/08/10 01:44:45;;;;;;;4.97;4.47;;;25.50;92.60;;;;;;5080185;28;20054;-47
2021/08/10 01:47:12;;;;;;;5.22;4.72;;;25.40;92.70;;;;;;5079837;28;20376;-48
2021/08/10 01:49:39;;;;;;;7.70;4.90;;;25.40;92.60;;;;;;5080043;28;20478;-46
2021/08/10 01:52:12;;;;;;;9.23;5.03;;;25.50;92.50;;;;;;5115536;28;20034;-46
2021/08/10 01:54:41;;;;;;;6.25;4.95;;;25.50;92.60;;;;;;5115442;28;20022;-45
2021/08/10 01:57:07;;;;;;;9.40;4.68;;;25.50;92.60;;;;;;5115352;28;20092;-45
2021/08/10 01:59:34;;;;;;;6.68;4.70;;;25.50;92.40;;;;;;5115360;28;20103;-45
2021/08/10 02:02:00;;;;;;;7.60;5.40;;;25.50;92.50;;;;;;5096419;28;20039;-45
2021/08/10 02:04:27;;;;;;;7.80;4.90;;;25.50;92.60;;;;;;5079402;28;20069;-45
2021/08/10 02:06:53;;;;;;;6.18;4.32;;;25.50;92.60;;;;;;5095674;28;20028;-44
2021/08/10 02:09:20;;;;;;;7.35;4.63;;;25.40;92.70;;;;;;5115132;28;20076;-43
2021/08/10 02:11:48;;;;;;;5.78;4.90;;;25.40;92.80;;;;;;5114988;28;20019;-45
2021/08/10 02:14:23;;;;;;;11.63;4.60;;;25.30;93.10;;;;;;5115058;28;20114;-43
2021/08/10 02:16:50;;;;;;;7.03;5.28;;;25.30;95.20;;;;;;5114889;28;20040;-43
2021/08/10 02:19:16;;;;;;;6.10;4.47;;;25.20;99.90;;;;;;5114778;28;20546;-46
2021/08/10 02:21:51;;;;;;;6.60;5.00;;;25.20;97.50;;;;;;5114914;28;20104;-46
2021/08/10 02:24:17;;;;;;;7.00;4.88;;;25.10;95.40;;;;;;5114901;28;20015;-43
2021/08/10 02:26:47;;;;;;;6.38;5.10;;;25.10;95.70;;;;;;5114817;28;20020;-44
2021/08/10 02:29:15;;;;;;;5.95;5.35;;;25.10;96.80;;;;;;5059784;28;20483;-45
2021/08/10 02:31:43;;;;;;;6.13;4.90;;;;;;;;;;5079057;28;20044;-48
2021/08/10 02:34:09;;;;;;;8.48;5.90;;;;;;;;;;5114826;28;20102;-46
2021/08/10 02:36:35;;;;;;;7.25;5.10;;;24.70;99.90;;;;;;5045647;28;20043;-49
2021/08/10 02:39:06;;;;;;;5.70;4.80;;;24.80;99.90;;;;;;5114511;28;20436;-49
2021/08/10 02:41:35;;;;;;;7.43;5.15;;;24.90;99.90;;;;;;5114519;28;20642;-46
2021/08/10 02:44:03;;;;;;;9.00;5.50;;;25.00;99.90;;;;;;5114268;28;20513;-43
2021/08/10 02:46:29;;;;;;;6.43;5.07;;;25.00;99.90;;;;;;5114340;28;20528;-48
2021/08/10 02:48:55;;;;;;;10.38;5.30;;;25.00;99.90;;;;;;5114334;28;20024;-45
2021/08/10 02:51:21;;;;;;;6.95;5.20;;;25.10;99.90;;;;;;5103174;28;20024;-45
2021/08/10 02:53:47;;;;;;;5.35;4.70;;;25.20;99.90;;;;;;5092117;28;20399;-45
2021/08/10 02:56:21;;;;;;;7.50;4.78;;;25.20;99.90;;;;;;5093816;28;20494;-45
2021/08/10 02:58:55;;;;;;;6.55;4.28;;;25.10;99.90;;;;;;5094057;28;20066;-43
2021/08/10 03:01:26;;;;;;;6.75;4.53;;;25.10;99.90;;;;;;5058376;28;20036;-46
2021/08/10 03:03:54;;;;;;;6.07;4.90;;;25.10;99.90;;;;;;5103687;28;20059;-46
2021/08/10 03:06:20;;;;;;;6.13;4.82;;;25.10;99.90;;;;;;5114257;28;20743;-46
2021/08/10 03:08:57;;;;;;;7.32;4.82;;;25.10;99.90;;;;;;5114014;28;20497;-45
2021/08/10 03:11:25;;;;;;;5.63;4.60;;;25.10;99.90;;;;;;5113949;28;20387;-46
2021/08/10 03:13:52;;;;;;;10.43;4.63;;;25.00;99.90;;;;;;5029049;28;20032;-48
2021/08/10 03:16:19;;;;;;;8.68;4.38;;;25.10;99.90;;;;;;5113817;28;20038;-46
2021/08/10 03:18:49;;;;;;;6.53;4.28;;;25.10;99.90;;;;;;5113686;28;20059;-49
2021/08/10 03:21:15;;;;;;;7.18;4.07;;;25.20;99.90;;;;;;5078097;28;20436;-48
2021/08/10 03:23:41;;;;;;;6.28;4.03;;;25.20;99.90;;;;;;5078289;28;20364;-46
2021/08/10 03:26:09;;;;;;;5.05;4.35;;;25.20;99.90;;;;;;5113822;28;20020;-49
2021/08/10 03:28:41;;;;;;;6.30;4.70;;;25.20;99.90;;;;;;5113890;28;20441;-47
2021/08/10 03:31:09;;;;;;;8.38;4.70;;;25.10;99.90;;;;;;5113701;28;20451;-46
2021/08/10 03:33:35;;;;;;;6.95;4.40;;;24.90;99.90;;;;;;5113794;28;20031;-49
2021/08/10 03:36:04;;;;;;;8.07;5.10;;;25.00;99.90;;;;;;5113654;28;20059;-47
2021/08/10 03:38:31;;;;;;;7.18;5.32;;;24.80;99.90;;;;;;5061772;28;20042;-44
2021/08/10 03:40:57;;;;;;;6.18;4.82;;;24.70;99.90;;;;;;5078013;28;20509;-46
2021/08/10 03:43:23;;;;;;;7.88;5.20;;;24.70;99.90;;;;;;5077865;28;20052;-47
2021/08/10 03:45:52;;;;;;;10.77;5.40;;;24.60;99.90;;;;;;5113747;28;20154;-45
2021/08/10 03:48:20;;;;;;;6.07;5.03;;;24.60;99.90;;;;;;5078109;28;20055;-44
2021/08/10 03:50:47;;;;;;;7.53;5.47;;;24.60;99.90;;;;;;5113501;28;20023;-44
2021/08/10 03:53:13;;;;;;;7.10;5.13;;;24.60;99.90;;;;;;5050881;28;20152;-45
2021/08/10 03:55:40;;;;;;;7.47;5.10;;;24.60;99.90;;;;;;5050933;28;20091;-45
2021/08/10 03:58:07;;;;;;;11.02;5.68;;;24.50;99.90;;;;;;5050904;28;20060;-43
2021/08/10 04:00:36;;;;;;;6.40;5.53;;;24.40;99.90;;;;;;5049989;28;20033;-46
2021/08/10 04:03:05;;;;;;;12.60;5.70;;;24.50;99.90;;;;;;5016736;28;20087;-45
2021/08/10 04:05:31;;;;;;;9.27;5.35;;;24.50;99.90;;;;;;5049735;28;20036;-46
2021/08/10 04:08:00;;;;;;;7.43;5.10;;;24.50;99.90;;;;;;5050803;28;20043;-45
2021/08/10 04:10:27;;;;;;;7.45;6.43;;;24.40;99.90;;;;;;5050800;28;20037;-46
2021/08/10 04:12:52;;;;;;;8.63;6.20;;;24.50;99.90;;;;;;5050861;28;20099;-50
2021/08/10 04:15:18;;;;;;;10.10;6.45;;;24.40;99.90;;;;;;4968841;28;20481;-43
2021/08/10 04:17:47;;;;;;;12.38;6.30;;;24.40;99.90;;;;;;5017629;28;20049;-45
2021/08/10 04:20:13;;;;;;;10.15;6.25;;;24.40;99.90;;;;;;5050674;28;20131;-43
2021/08/10 04:22:42;;;;;;;8.23;6.53;;;24.30;99.90;;;;;;5017723;28;20520;-47
2021/08/10 04:25:08;;;;;;;9.00;6.65;;;24.30;99.90;;;;;;5024019;28;20040;-46
2021/08/10 04:27:34;;;;;;;8.75;6.75;;;24.30;99.90;;;;;;5044696;28;20047;-45
2021/08/10 04:30:00;;;;;;;13.50;7.32;;;24.40;99.90;;;;;;5030209;28;20035;-46
2021/08/10 04:32:26;;;;;;;8.10;6.38;;;24.50;99.90;;;;;;5112883;28;20031;-47
2021/08/10 04:34:51;;;;;;;15.35;7.05;;;24.50;99.90;;;;;;5080798;28;20035;-48
2021/08/10 04:37:18;;;;;;;8.95;6.65;;;24.40;99.90;;;;;;5064984;28;20040;-42
2021/08/10 04:39:44;;;;;;;8.35;6.55;;;24.20;99.90;;;;;;5116935;28;20107;-48
2021/08/10 04:42:09;;;;;;;9.45;6.70;;;24.20;99.90;;;;;;5062819;28;20483;-45
2021/08/10 04:44:35;;;;;;;8.57;7.20;;;24.30;99.90;;;;;;5096615;28;20028;-46
2021/08/10 04:47:01;;;;;;;7.90;7.07;;;24.30;99.90;;;;;;5096615;28;20468;-47
2021/08/10 04:49:27;;;;;;;8.65;6.60;;;24.30;99.90;;;;;;5103228;28;20030;-45
2021/08/10 04:51:53;;;;;;;12.00;6.80;;;24.30;99.90;;;;;;5116548;28;20035;-43
2021/08/10 04:54:18;;;;;;;11.23;8.45;;;24.30;99.90;;;;;;5116500;28;20493;-45
2021/08/10 04:56:44;;;;;;;11.80;7.38;;;24.40;99.90;;;;;;5116493;28;20214;-45
2021/08/10 04:59:10;;;;;;;8.02;6.70;;;24.50;99.90;;;;;;5080870;28;20432;-46
2021/08/10 05:01:38;;;;;;;9.90;6.80;;;24.50;99.90;;;;;;5109060;28;20467;-44
2021/08/10 05:04:04;;;;;;;8.82;6.65;;;24.50;99.90;;;;;;5106406;28;20043;-46
2021/08/10 05:06:30;;;;;;;7.55;6.10;;;24.40;99.90;;;;;;5035783;28;20036;-44
2021/08/10 05:08:55;;;;;;;7.75;6.40;;;24.50;99.90;;;;;;5116417;28;20031;-47
2021/08/10 05:11:21;;;;;;;7.82;5.80;;;24.60;99.90;;;;;;5064112;28;20043;-43
2021/08/10 05:13:47;;;;;;;16.88;6.57;;;24.50;99.90;;;;;;5013955;28;20043;-47
2021/08/10 05:16:13;;;;;;;7.40;6.00;;;24.80;99.90;;;;;;5045357;28;20143;-45
2021/08/10 05:18:39;;;;;;;6.57;5.78;;;24.80;99.90;;;;;;5080718;28;20039;-44
2021/08/10 05:21:04;;;;;;;8.18;5.07;;;24.90;99.90;;;;;;5080498;28;20035;-42
2021/08/10 05:23:34;;;;;;;9.60;5.90;;;24.90;99.90;;;;;;5080340;28;20395;-45
2021/08/10 05:26:00;;;;;;;11.13;5.30;;;25.00;99.90;;;;;;5076561;28;20077;-42
2021/08/10 05:28:26;;;;;;;7.47;5.40;;;25.00;99.90;;;;;;5102417;28;20111;-46
2021/08/10 05:30:52;;;;;;;9.25;5.35;;;25.00;99.90;;;;;;5116165;28;20020;-44
2021/08/10 05:33:17;;;;;;;8.35;5.60;;;25.20;99.90;;;;;;5080505;28;20031;-48
2021/08/10 05:35:44;;;;;;;9.20;5.65;;;25.30;99.90;;;;;;5077083;28;20054;-44
2021/08/10 05:38:10;;;;;;;8.25;5.63;;;25.40;99.90;;;;;;5105327;28;20039;-46
2021/08/10 05:40:35;;;;;;;7.25;5.70;;;25.30;99.90;;;;;;5061021;28;20028;-45
2021/08/10 05:43:01;;;;;;;7.70;5.38;;;25.50;99.90;;;;;;5071502;28;20047;-47
2021/08/10 05:45:27;;;;;;;6.97;5.32;;;25.60;99.90;;;;;;5115446;28;20019;-48
2021/08/10 05:47:53;;;;;;;16.58;7.03;;;25.70;99.90;;;;;;5063212;28;20036;-43
2021/08/10 05:50:18;;;;;;;12.18;6.70;;;25.70;99.90;;;;;;5115316;28;20027;-46
2021/08/10 05:52:44;;;;;;;13.25;6.68;;;25.90;99.90;;;;;;5078221;28;20048;-44
2021/08/10 05:55:11;;;;;;;11.35;6.50;;;;;;;;;;5070398;28;20031;-45
2021/08/10 05:57:36;;;;;;;10.27;5.88;;;26.00;99.90;;;;;;5079909;28;20048;-46
2021/08/10 06:00:03;;;;;;;14.20;6.10;;;26.10;99.90;;;;;;5079809;28;20039;-45
2021/08/10 06:02:29;;;;;;;13.02;6.13;;;26.10;99.90;;;;;;5096634;28;20114;-44
2021/08/10 06:04:54;;;;;;;11.45;6.63;;;26.00;99.90;;;;;;5115453;28;20051;-45
2021/08/10 06:07:20;;;;;;;19.50;6.60;;;26.00;99.90;;;;;;5066979;28;20032;-45
2021/08/10 06:09:46;;;;;;;13.23;5.70;;;26.20;99.90;;;;;;5084122;28;20046;-42
2021/08/10 06:12:11;;;;;;;15.45;6.05;;;26.20;99.90;;;;;;5029858;28;20043;-45
2021/08/10 06:14:37;;;;;;;10.20;5.70;;;26.20;99.90;;;;;;5105840;28;20113;-48
2021/08/10 06:17:03;;;;;;;13.15;5.82;;;26.30;99.90;;;;;;5104126;28;20100;-45
2021/08/10 06:19:29;;;;;;;9.68;5.60;;;26.50;99.90;;;;;;5102591;28;20027;-47
2021/08/10 06:21:55;;;;;;;9.15;5.50;;;26.70;98.80;;;;;;5105065;28;20028;-45
2021/08/10 06:24:21;;;;;;;16.15;6.25;;;26.70;98.70;;;;;;5103077;28;20032;-42
2021/08/10 06:26:46;;;;;;;9.40;5.65;;;26.80;98.50;;;;;;5105357;28;20379;-44
2021/08/10 06:29:12;;;;;;;7.50;5.50;;;26.80;98.30;;;;;;5098854;28;20483;-46
2021/08/10 06:31:38;;;;;;;7.53;5.00;;;27.00;98.40;;;;;;5094392;28;20048;-47
2021/08/10 06:34:04;;;;;;;10.23;7.03;;;26.90;99.70;;;;;;5105812;28;20032;-40
2021/08/10 06:36:30;;;;;;;7.10;5.47;;;27.00;99.90;;;;;;5071081;28;20478;-39
2021/08/10 06:38:55;;;;;;;10.90;5.50;;;27.10;99.90;;;;;;5071588;28;20073;-43
2021/08/10 06:41:22;;;;;;;8.20;4.82;;;;;;;;;;5069101;28;20142;-47
2021/08/10 06:43:48;;;;;;;6.47;4.50;;;;;;;;;;5071672;28;20049;-47
2021/08/10 06:46:14;;;;;;;7.20;5.22;;;;;;;;;;5054674;28;20033;-45
2021/08/10 06:48:41;;;;;;;7.63;5.32;;;27.70;99.90;;;;;;5037550;28;20045;-48
2021/08/10 06:51:07;;;;;;;10.02;5.20;;;;;;;;;;5035128;28;20059;-47
2021/08/10 06:53:32;;;;;;;9.98;5.10;;;27.80;91.10;;;;;;5054782;28;20523;-47
2021/08/10 06:55:58;;;;;;;6.65;5.22;;;27.90;90.70;;;;;;5071717;28;20143;-50
2021/08/10 06:58:24;;;;;;;8.85;5.00;;;27.90;90.80;;;;;;5071227;28;20034;-44
2021/08/10 07:00:50;;;;;;;8.63;5.20;;;28.00;91.90;;;;;;5018135;28;20448;-48
2021/08/10 07:03:15;;;;;;;8.35;5.28;;;28.10;93.50;;;;;;5052130;28;20037;-45
2021/08/10 07:05:42;;;;;;;9.43;5.75;;;;;;;;;;5051734;28;20137;-47
2021/08/10 07:08:07;;;;;;;13.02;5.00;;;28.30;90.60;;;;;;5083943;28;20032;-49
2021/08/10 07:10:37;;;;;;;10.60;5.50;;;;;;;;;;5093569;28;20031;-48
2021/08/10 07:13:03;;;;;;;9.50;5.38;;;28.60;88.50;;;;;;5093964;28;20433;-48
2021/08/10 07:15:28;;;;;;;9.80;4.95;;;28.60;87.70;;;;;;5058379;28;20032;-45
2021/08/10 07:17:54;;;;;;;8.65;4.47;;;28.60;87.60;;;;;;5075191;28;20040;-48
2021/08/10 07:20:20;;;;;;;9.60;4.45;;;28.80;87.00;;;;;;5092129;28;20031;-47
2021/08/10 07:22:46;;;;;;;13.85;5.15;;;28.90;85.60;;;;;;5058253;28;20040;-48
2021/08/10 07:25:12;;;;;;;11.70;4.90;;;;;;;;;;5058382;28;20036;-44
2021/08/10 07:27:38;;;;;;;9.88;4.53;;;;;;;;;;5050364;28;20044;-43
2021/08/10 07:30:04;;;;;;;6.50;4.07;;;;;;;;;;5119461;27;20022;-47
2021/08/10 07:32:31;;;;;;;7.72;4.35;;;;;;;;;;5080622;28;20382;-48
2021/08/10 07:34:57;;;;;;;6.65;3.95;;;;;;;;;;5077823;28;20467;-45
2021/08/10 07:37:23;;;;;;;10.35;4.72;;;;;;;;;;5044507;28;20134;-45
2021/08/10 07:39:49;;;;;;;16.13;4.97;;;;;;;;;;5114021;28;20027;-43
2021/08/10 07:42:15;;;;;;;8.75;4.47;;;29.90;94.30;;;;;;5060127;28;20036;-48
2021/08/10 07:44:40;;;;;;;8.13;4.25;;;30.20;96.10;;;;;;5113203;28;20100;-47
2021/08/10 07:47:07;;;;;;;6.63;4.00;;;;;;;;;;5114866;28;20055;-45
2021/08/10 07:49:34;;;;;;;6.55;4.25;;;30.30;99.50;;;;;;5114965;28;20024;-45
2021/08/10 07:52:00;;;;;;;5.72;3.53;;;30.40;94.40;;;;;;5115850;28;20100;-47
2021/08/10 07:54:26;;;;;;;6.90;3.83;;;;;;;;;;5037796;28;20475;-43
2021/08/10 07:56:52;;;;;;;10.18;3.75;;;;;;;;;;5116185;28;20487;-48
2021/08/10 07:59:18;;;;;;;7.80;4.13;;;;;;;;;;5111231;28;20036;-45
2021/08/10 08:01:44;;;;;;;5.15;3.45;;;30.60;80.60;;;;;;5113550;28;20051;-42
2021/08/10 08:04:10;;;;;;;8.43;4.00;;;30.90;80.10;;;;;;5115802;27;20035;-44
2021/08/10 08:06:35;;;;;;;8.32;4.30;;;30.90;79.80;;;;;;5065152;28;20500;-46
2021/08/10 08:09:01;;;;;;;10.70;4.22;;;30.90;79.10;;;;;;5115615;27;20027;-46
2021/08/10 08:11:27;;;;;;;8.48;4.20;;;31.00;79.20;;;;;;5080335;27;20498;-43
2021/08/10 08:13:53;;;;;;;6.70;3.75;;;30.90;78.60;;;;;;5080820;28;20375;-47
2021/08/10 08:16:19;;;;;;;9.13;3.97;;;31.10;78.40;;;;;;5117649;27;20042;-45
2021/08/10 08:18:45;;;;;;;9.48;4.00;;;31.20;77.80;;;;;;5062437;28;20039;-49
2021/08/10 08:21:11;;;;;;;12.43;4.25;;;31.10;77.70;;;;;;5119778;27;20035;-46
2021/08/10 08:23:38;;;;;;;11.13;5.25;;;31.30;78.30;;;;;;5119062;27;20107;-48
2021/08/10 08:26:07;;;;;;;10.80;4.80;;;31.60;77.20;;;;;;5117929;27;20134;-47
2021/08/10 08:28:34;;;;;;;7.97;4.22;;;31.70;76.50;;;;;;5085479;27;20140;-47
2021/08/10 08:31:02;;;;;;;7.03;3.75;;;31.70;76.90;;;;;;5081018;27;20064;-41
2021/08/10 08:33:28;;;;;;;7.05;3.78;;;31.90;78.60;;;;;;5117654;27;20467;-45
2021/08/10 08:35:54;;;;;;;8.13;3.78;;;32.00;91.90;;;;;;5117990;27;20039;-47
2021/08/10 08:38:20;;;;;;;5.38;3.45;;;32.30;90.80;;;;;;5030579;27;20036;-43
2021/08/10 08:40:47;;;;;;;8.65;3.42;;;32.30;79.20;;;;;;5086059;28;20032;-45
2021/08/10 08:43:14;;;;;;;5.95;3.50;;;;;;;;;;5118792;27;20044;-43
2021/08/10 08:45:44;;;;;;;7.63;3.70;;;;;;;;;;5120842;27;20059;-44
2021/08/10 08:48:13;;;;;;;7.50;3.25;;;;;;;;;;5118205;27;20024;-46
2021/08/10 08:50:40;;;;;;;6.28;3.33;;;;;;;;;;5117789;27;20470;-46
2021/08/10 08:53:07;;;;;;;6.97;3.55;;;;;;;;;;5119211;27;21943;-45
2021/08/10 08:55:34;;;;;;;9.00;4.30;;;33.20;91.20;;;;;;5099941;27;20127;-50
2021/08/10 08:58:01;;;;;;;6.40;3.33;;;;;;;;;;5078558;28;20122;-52
2021/08/10 09:00:26;;;;;;;6.13;3.53;;;33.40;72.00;;;;;;5117883;27;20027;-50
2021/08/10 09:02:52;;;;;;;5.90;3.25;;;33.60;70.20;;;;;;5118606;27;20084;-50
2021/08/10 09:05:18;;;;;;;5.75;3.50;;;33.50;70.10;;;;;;5117513;27;20035;-48
2021/08/10 09:07:44;;;;;;;8.18;3.25;;;33.80;69.30;;;;;;5115813;27;20024;-46
2021/08/10 09:10:17;;;;;;;8.48;3.58;;;33.90;69.00;;;;;;5078126;27;20048;-46
2021/08/10 09:12:48;;;;;;;5.47;3.67;;;34.20;69.20;;;;;;5126194;27;20180;-49
2021/08/10 09:15:38;;;;;;;5.03;3.13;;;34.70;84.90;;;;;;5114444;27;20036;-46
2021/08/10 09:18:18;;;;;;;4.43;2.63;;;35.00;73.20;;;;;;5120513;27;20064;-48
2021/08/10 09:20:59;;;;;;;4.97;3.22;;;34.60;65.80;;;;;;5124997;27;20088;-46
2021/08/10 09:23:37;;;;;;;6.27;3.67;;;34.70;66.60;;;;;;5123136;27;20932;-47
2021/08/10 09:26:03;;;;;;;5.18;3.65;;;35.20;71.10;;;;;;5113737;27;20027;-51
2021/08/10 09:28:33;;;;;;;9.35;5.22;;;35.30;70.50;;;;;;5080915;28;20096;-49
2021/08/10 09:31:30;;;;;;;7.20;3.85;;;35.50;83.80;;;;;;5084136;27;20568;-47
2021/08/10 09:33:58;;;;;;;4.85;3.72;;;35.70;79.30;;;;;;5075997;28;20050;-50
2021/08/10 09:36:25;;;;;;;4.72;3.47;;;;;;;;;;5118124;27;20039;-46
2021/08/10 09:38:51;;;;;;;6.95;3.08;;;36.00;87.00;;;;;;5098895;28;20042;-47
2021/08/10 09:41:17;;;;;;;5.22;3.47;;;36.10;85.30;;;;;;5066111;27;20074;-51
2021/08/10 09:43:43;;;;;;;6.97;3.60;;;;;;;;;;5094669;27;20506;-49
2021/08/10 09:46:19;;;;;;;4.30;3.00;;;36.20;70.00;;;;;;5116594;27;20016;-47
2021/08/10 09:48:55;;;;;;;4.70;3.17;;;36.30;72.40;;;;;;5115605;27;20038;-51
2021/08/10 09:51:23;;;;;;;4.63;3.10;;;;;;;;;;5114594;27;20111;-50
2021/08/10 09:53:56;;;;;;;5.15;3.30;;;;;;;;;;5112349;27;20036;-47
2021/08/10 09:56:35;;;;;;;4.30;3.05;;;;;;;;;;5114347;27;20092;-51
2021/08/10 09:59:01;;;;;;;6.38;3.92;;;;;;;;;;5077318;28;20356;-47
2021/08/10 10:01:31;;;;;;;7.32;4.25;;;;;;;;;;5079319;28;20042;-46
2021/08/10 10:04:13;;;;;;;6.22;3.22;;;;;;;;;;5114030;27;20127;-50
2021/08/10 10:06:40;;;;;;;7.00;3.50;;;36.60;90.90;;;;;;5083462;27;20187;-52
2021/08/10 10:09:06;;;;;;;7.03;3.50;;;36.70;86.50;;;;;;5113244;27;20034;-48
2021/08/10 10:11:42;;;;;;;20.38;3.53;;;;;;;;;;5116156;27;20027;-48
2021/08/10 10:14:09;;;;;;;7.72;3.42;;;;;;;;;;5120110;27;20011;-50
2021/08/10 10:16:37;;;;;;;6.63;3.72;;;37.70;76.10;;;;;;5115359;27;20067;-48
2021/08/10 10:19:09;;;;;;;4.63;2.92;;;37.50;86.30;;;;;;5112546;27;20028;-50
2021/08/10 10:21:36;;;;;;;6.57;3.55;;;;;;;;;;5113253;28;20047;-47
2021/08/10 10:24:03;;;;;;;8.45;3.05;;;;;;;;;;5114423;27;20108;-44
2021/08/10 10:26:31;;;;;;;7.03;3.05;;;37.20;88.20;;;;;;5061769;28;20367;-47
2021/08/10 10:28:58;;;;;;;6.50;3.13;;;37.40;87.50;;;;;;5047197;28;20423;-50
2021/08/10 10:31:24;;;;;;;6.97;3.40;;;37.40;86.10;;;;;;5050405;28;20116;-48
2021/08/10 10:33:51;;;;;;;6.57;3.10;;;37.70;81.10;;;;;;5052787;28;20528;-50
2021/08/10 10:36:17;;;;;;;6.80;3.50;;;37.70;79.80;;;;;;5057825;28;20072;-49
2021/08/10 10:38:45;;;;;;;5.32;3.15;;;37.60;81.20;;;;;;5055137;28;20507;-52
2021/08/10 10:41:13;;;;;;;5.70;3.40;;;;;;;;;;5058075;28;20334;-52
2021/08/10 10:43:41;;;;;;;10.65;3.50;;;;;;;;;;5063415;28;20090;-51
2021/08/10 10:46:28;;;;;;;7.78;3.50;;;;;;;;;;5074001;28;20624;-52
2021/08/10 10:48:54;;;;;;;5.68;3.25;;;38.00;59.80;;;;;;5068271;28;20106;-51
2021/08/10 10:51:27;;;;;;;5.32;3.17;;;;;;;;;;5044996;28;20048;-51
2021/08/10 10:53:54;;;;;;;6.28;3.53;;;;;;;;;;5057240;28;20036;-53
2021/08/10 10:56:25;;;;;;;6.53;4.25;;;37.70;75.90;;;;;;5070586;28;20048;-48
2021/08/10 10:58:53;;;;;;;8.88;3.35;;;38.10;74.30;;;;;;5072804;28;20041;-50
2021/08/10 11:01:20;;;;;;;4.82;3.47;;;38.30;74.80;;;;;;5113247;28;20379;-54
2021/08/10 11:04:18;;;;;;;8.43;3.80;;;;;;;;;;5114515;27;20039;-46
2021/08/10 11:06:49;;;;;;;7.22;3.95;;;;;;;;;;5048032;28;20040;-44
2021/08/10 11:09:33;;;;;;;6.00;3.28;;;;;;;;;;5051854;28;20040;-57
2021/08/10 11:12:00;;;;;;;7.97;3.83;;;;;;;;;;5050881;28;20037;-50
2021/08/10 11:14:36;;;;;;;7.05;3.15;;;;;;;;;;5053318;28;20439;-49
2021/08/10 11:17:10;;;;;;;7.40;4.00;;;;;;;;;;5058602;28;20079;-50
2021/08/10 11:19:37;;;;;;;5.25;3.60;;;;;;;;;;5030529;28;20091;-52
2021/08/10 11:22:16;;;;;;;7.57;3.78;;;;;;;;;;5056523;28;20119;-47
2021/08/10 11:24:46;;;;;;;5.60;3.50;;;;;;;;;;5057596;28;20047;-47
2021/08/10 11:27:30;;;;;;;5.67;3.63;;;;;;;;;;5034287;28;20511;-47
2021/08/10 11:29:56;;;;;;;5.07;3.38;;;;;;;;;;5051509;28;20056;-51
2021/08/10 11:32:48;;;;;;;6.10;3.80;;;;;;;;;;5054393;28;20436;-51
2021/08/10 11:35:34;;;;;;;5.88;3.08;;;;;;;;;;5058212;28;20036;-52
2021/08/10 11:38:20;;;;;;;5.93;3.13;;;;;;;;;;5054194;28;20670;-46
2021/08/10 11:40:54;;;;;;;5.25;3.42;;;;;;;;;;5022222;28;20476;-50
2021/08/10 11:43:33;;;;;;;7.28;2.92;;;;;;;;;;5120156;27;20055;-47
2021/08/10 11:46:00;;;;;;;6.20;3.05;;;;;;;;;;5123740;27;20064;-48
2021/08/10 11:48:26;;;;;;;8.00;3.53;;;;;;;;;;5080182;27;20051;-53
2021/08/10 11:50:52;;;;;;;4.68;3.08;;;;;;;;;;5125799;27;20083;-53
2021/08/10 11:53:29;;;;;;;4.93;3.35;;;;;;;;;;5120417;27;20031;-53
2021/08/10 11:55:55;;;;;;;5.35;3.30;;;;;;;;;;5124603;27;20359;-55
2021/08/10 11:58:21;;;;;;;7.43;3.78;;;;;;;;;;5120986;27;20042;-45
2021/08/10 12:01:02;;;;;;;5.90;3.53;;;;;;;;;;5121556;27;20031;-47
2021/08/10 12:03:28;;;;;;;;;;;;;;;;;;5121857;27;20027;-50
2021/08/10 12:05:54;;;;;;;9.13;3.15;;;;;;;;;;5120385;27;20282;-47
2021/08/10 12:08:25;;;;;;;6.75;3.10;;;;;;;;;;5124568;27;20035;-53
2021/08/10 12:10:51;;;;;;;6.13;2.95;;;;;;;;;;5121187;27;20363;-48
2021/08/10 12:13:24;;;;;;;7.85;3.10;;;;;;;;;;5122694;27;20174;-48
2021/08/10 12:15:51;;;;;;;4.15;3.25;;;;;;;;;;5077953;28;20509;-44
2021/08/10 12:18:20;;;;;;;7.35;3.63;;;;;;;;;;5057541;28;20543;-49
2021/08/10 12:21:06;;;;;;;4.65;3.30;;;;;;;;;;5057221;28;20287;-50
2021/08/10 12:23:39;;;;;;;7.25;3.20;;;;;;;;;;5050573;28;20396;-56
2021/08/10 12:26:13;;;;;;;6.10;3.20;;;;;;;;;;5029333;28;20094;-57
2021/08/10 12:29:04;;;;;;;6.40;3.50;;;;;;;;;;5059711;28;20041;-55
2021/08/10 12:31:34;;;;;;;6.68;3.15;;;;;;;;;;5058311;28;20091;-50
2021/08/10 12:34:01;;;;;;;5.30;3.00;;;;;;;;;;5061397;28;20047;-50
2021/08/10 12:36:27;;;;;;;8.75;3.40;;;;;;;;;;5056243;28;20045;-53
2021/08/10 12:38:54;;;;;;;7.57;3.58;;;;;;;;;;5058690;28;20041;-48
2021/08/10 12:41:24;;;;;;;6.80;3.28;;;;;;;;;;5064272;28;20036;-56
2021/08/10 12:43:50;;;;;;;7.78;3.85;;;;;;;;;;5075387;28;20102;-52
2021/08/10 12:46:27;;;;;;;7.35;3.47;;;;;;;;;;5033497;28;20029;-52
2021/08/10 12:49:02;;;;;;;9.00;3.60;;;;;;;;;;5091884;28;20471;-53
2021/08/10 12:51:48;;;;;;;8.93;3.15;;;;;;;;;;5075081;27;20091;-53
2021/08/10 12:54:14;;;;;;;8.73;3.88;;;;;;;;;;5120006;27;20459;-58
2021/08/10 12:56:40;;;;;;;6.38;3.30;;;;;;;;;;5118228;27;20040;-46
2021/08/10 12:59:07;;;;;;;6.03;3.28;;;;;;;;;;5116723;27;20463;-55
2021/08/10 13:01:43;;;;;;;6.22;3.50;;;;;;;;;;5119254;27;20085;-46
2021/08/10 13:04:10;;;;;;;7.47;3.42;;;;;;;;;;5115473;27;20019;-53
2021/08/10 13:06:36;;;;;;;6.35;3.17;;;;;;;;;;5086590;28;20067;-50
2021/08/10 13:09:03;;;;;;;10.77;3.80;;;;;;;;;;5082533;28;20040;-49
2021/08/10 13:11:29;;;;;;;9.30;3.80;;;;;;;;;;5075391;28;20146;-50
2021/08/10 13:14:08;;;;;;;4.43;3.28;;;;;;;;;;5082947;28;20035;-50
2021/08/10 13:16:42;;;;;;;5.63;3.55;;;;;;;;;;5079579;28;20036;-65
2021/08/10 13:19:08;;;;;;;6.88;3.85;;;;;;;;;;5075194;28;20037;-54
2021/08/10 13:21:51;;;;;;;5.00;3.25;;;;;;;;;;5075830;28;20033;-49
2021/08/10 13:24:19;;;;;;;5.95;3.60;;;;;;;;;;5077556;28;20027;-47